Vicksburg, MS

1:30 PM CST on March 03, 2015 (GMT -0600)
DANA RD 1 | Change Station
CLOSE
Current Station
Personal Weather Station
Location: Vicksburg, MS
Elevation: 243 ft
Nearby Weather Stations
Active Advisory: Flood Warning

Elev 243 ft 32.27 °N, 90.88 °W | Updated 4 minutes ago

Overcast
Overcast
76.8 °F
Feels Like 78 °F
N
4.7
Wind Variable Wind from South

Today
High -- | Low -- °F
--% Chance of Precip.
Yesterday
High -- | Low -- °F
Precip. -- in
6:28 AM 6:02 PM
Waxing Gibbous, 97% visible
Pressure 30.01 in
Visibility 10.0 miles
Clouds Few 3300 ft
Mostly Cloudy 5000 ft
Overcast 7000 ft
Heat Index 78 °F
Dew Point 71 °F
Humidity 83%
Rainfall 0.00 in
Snow Depth Not available.
UV 2 out of 12
Pollen 7.30 out of 12
Air Quality Not available.
Flu Activity Not available.
METAR KVKS 031920Z AUTO 19007KT 170V230 10SM FEW033 BKN050 OVC070 24/20 A3001 RMK A01

More Conditions Fewer Conditions

Pressure 30.01 in
Visibility 10.0 miles
Clouds Few 3300 ft
Mostly Cloudy 5000 ft
Overcast 7000 ft
Heat Index 78 °F
Dew Point 71 °F
Humidity 83%
Rainfall 0.00 in
Snow Depth Not available.
UV 2 out of 12
Pollen 7.30 out of 12
Air Quality Not available.
Flu Activity Not available.
METAR KVKS 031920Z AUTO 19007KT 170V230 10SM FEW033 BKN050 OVC070 24/20 A3001 RMK A01

More Conditions Fewer Conditions

10-Day Weather Forecast

Almanac

Astronomy

Mar. 03, 2015 Rise Set
Actual Time
Civil Twilight
Nautical Twilight
Astronomical Twilight
Moon
Length of Visible Light
Length of Day
Tomorrow will be .
, % of the Moon is Illuminated

Today's Extremes

State Highs State Lows

Community

WunderPhotos

Upload Photos

1,802,207 photos uploaded!

WunderBlogs® & News

Nearby

Air Quality

  Air Quality AQ Index Pollutant
Not available.

Snow Depth

Station Depth Elevation

Earthquake Activity

City Distance Mag. Time & Date
Minimum magnitude displayed is 2.5.

Coastal Water Temperatures

Place Temperature

Nearby Weather Stations

Flood Warning
Statement as of 10:03 AM CST on March 03, 2015


The Flood Warning continues for
the Big Black River near Bovina
* until late Saturday night.
* At 9:15 am Tuesday the stage was 31.1 feet.
* Minor flooding is occurring and minor flooding is forecast.
* Flood stage is 28.0 feet.
* Forecast... the river is cresting and will begin a very slow fall
on Wednesday.
* Impact... at 28.0 feet... low-lying agricultural land near the river
begins to flood.


              Flood observed forecast 7 am crest
location stg stg day time Wed Thu Fri crest time date

Lower Big Black River
Bovina 28 31.1 Tue 09 am 31.0 30.5 29.5 cresting




Lat... Lon 3217 9093 3224 9078 3256 9064 3245 9052
      3218 9065 3204 9102